Stormville, Texas
Current Conditions -  °F | °C
As of 11:55 AM on Saturday 25 Oct 2014 (Local Time) from KJDD Reporting Station
Clear Clear  
Wind Chill: 79°   Ceiling: Unl
Heat Index: 80°   Visibility: 10mi
Dew Point: 61°   Wind: 7mph
Humidity: 54%   Direction: 200°SSW
Pressure: 30.17"   Gusts: NA
Location:  32.7982°N, 95.4046°W
Report Text: KJDD 251655Z AUTO 20006KT 10SM CLR 26/16 A3017 RMK AO2
Loading
Personal Weather Stations






























Interactive Weather Map
Tropical Storm Tracking
New forecast layout! Learn more

10-Day Weather Forecast

Advertisements
Track Severe Weather on mobile